createdAt,value
2017-06-30T00:00:25.154Z,935.61
2017-06-30T00:00:53.311Z,935.65
2017-06-30T00:01:21.326Z,935.62
2017-06-30T00:01:49.506Z,935.61
2017-06-30T00:02:17.751Z,935.63
2017-06-30T00:02:45.951Z,935.6
2017-06-30T00:03:14.156Z,935.65
2017-06-30T00:03:42.451Z,935.64
2017-06-30T00:04:10.492Z,935.65
2017-06-30T00:04:38.709Z,935.64
2017-06-30T00:05:06.798Z,935.64
2017-06-30T00:05:34.800Z,935.62
2017-06-30T00:06:02.955Z,935.67
2017-06-30T00:06:31.082Z,935.63
2017-06-30T00:06:59.087Z,935.62
2017-06-30T00:07:27.189Z,935.63
2017-06-30T00:07:55.212Z,935.64
2017-06-30T00:08:23.436Z,935.64
2017-06-30T00:08:51.653Z,935.63
2017-06-30T00:09:19.795Z,935.66
2017-06-30T00:09:47.917Z,935.65
2017-06-30T00:10:16.064Z,935.66
2017-06-30T00:10:44.189Z,935.65
2017-06-30T00:11:12.250Z,935.7
2017-06-30T00:11:40.303Z,935.69
2017-06-30T00:12:08.398Z,935.68
2017-06-30T00:12:36.612Z,935.72
2017-06-30T00:13:04.819Z,935.71
2017-06-30T00:13:33.034Z,935.7
2017-06-30T00:14:01.369Z,935.73
2017-06-30T00:14:29.571Z,935.74
2017-06-30T00:14:57.725Z,935.72
2017-06-30T00:15:25.877Z,935.79
2017-06-30T00:15:53.891Z,935.78
2017-06-30T00:16:21.990Z,935.77
2017-06-30T00:16:50.015Z,935.77
2017-06-30T00:17:18.246Z,935.78
2017-06-30T00:17:46.299Z,935.81
2017-06-30T00:18:14.422Z,935.78
2017-06-30T00:18:42.564Z,935.77
2017-06-30T00:19:10.501Z,935.81
2017-06-30T00:19:38.541Z,935.78
2017-06-30T00:20:06.761Z,935.81
2017-06-30T00:20:34.813Z,935.83
2017-06-30T00:21:02.935Z,935.77
2017-06-30T00:21:31.121Z,935.8
2017-06-30T00:21:59.162Z,935.83
2017-06-30T00:22:27.166Z,935.83
2017-06-30T00:22:55.170Z,935.84
2017-06-30T00:23:23.282Z,935.85
2017-06-30T00:23:51.624Z,935.84
2017-06-30T00:24:19.635Z,935.83
2017-06-30T00:24:47.838Z,935.83
2017-06-30T00:25:16.060Z,935.82
2017-06-30T00:25:44.070Z,935.81
2017-06-30T00:26:12.108Z,935.83
2017-06-30T00:26:40.310Z,935.85
2017-06-30T00:27:08.363Z,935.8
2017-06-30T00:27:36.576Z,935.82
2017-06-30T00:28:04.596Z,935.83
2017-06-30T00:28:32.741Z,935.82
2017-06-30T00:29:01.076Z,935.86
2017-06-30T00:29:29.196Z,935.89
2017-06-30T00:29:57.421Z,935.86
2017-06-30T00:30:25.530Z,935.88
2017-06-30T00:30:53.530Z,935.88
2017-06-30T00:31:21.520Z,935.89
2017-06-30T00:31:49.744Z,935.86
2017-06-30T00:32:18.005Z,935.92
2017-06-30T00:32:46.024Z,935.93
2017-06-30T00:33:14.250Z,935.9
2017-06-30T00:33:42.408Z,935.93
2017-06-30T00:34:10.697Z,935.92
2017-06-30T00:34:38.797Z,935.89
2017-06-30T00:35:06.873Z,935.94
2017-06-30T00:35:34.968Z,935.92
2017-06-30T00:36:03.055Z,935.93
2017-06-30T00:36:31.056Z,935.94
2017-06-30T00:36:59.267Z,935.93
2017-06-30T00:37:27.289Z,935.94
2017-06-30T00:37:55.398Z,935.95
2017-06-30T00:38:23.620Z,935.92
2017-06-30T00:38:51.732Z,935.96
2017-06-30T00:39:20.042Z,935.98
2017-06-30T00:39:48.251Z,935.94
2017-06-30T00:40:16.411Z,935.95
2017-06-30T00:40:44.454Z,935.97
2017-06-30T00:41:12.544Z,935.97
2017-06-30T00:41:40.623Z,935.94
2017-06-30T00:42:08.861Z,935.94
2017-06-30T00:42:37.068Z,935.98
2017-06-30T00:43:05.283Z,935.98
2017-06-30T00:43:33.374Z,935.96
2017-06-30T00:44:01.511Z,935.98
2017-06-30T00:44:29.643Z,935.97
2017-06-30T00:44:57.750Z,935.99
2017-06-30T00:45:25.988Z,935.96
2017-06-30T00:45:54.021Z,935.99
2017-06-30T00:46:22.261Z,935.97
2017-06-30T00:46:50.391Z,935.98
2017-06-30T00:47:18.492Z,935.95
2017-06-30T00:47:46.623Z,935.99
2017-06-30T00:48:14.745Z,935.97
2017-06-30T00:48:42.982Z,935.97
2017-06-30T00:49:11.364Z,935.98
2017-06-30T00:49:39.508Z,935.98
2017-06-30T00:50:07.683Z,935.99
2017-06-30T00:50:35.624Z,935.97
2017-06-30T00:51:03.786Z,935.98
2017-06-30T00:51:31.988Z,935.97
2017-06-30T00:52:00.085Z,935.97
2017-06-30T00:52:28.037Z,935.92
2017-06-30T00:52:56.255Z,935.95
2017-06-30T00:53:24.357Z,935.96
2017-06-30T00:53:52.639Z,935.93
2017-06-30T00:54:20.890Z,935.91
2017-06-30T00:54:49.014Z,935.94
2017-06-30T00:55:17.238Z,935.95
2017-06-30T00:55:45.334Z,935.94
2017-06-30T00:56:13.340Z,935.92
2017-06-30T00:56:41.468Z,935.94
2017-06-30T00:57:09.615Z,935.94
2017-06-30T00:57:37.773Z,935.92
2017-06-30T00:58:05.905Z,935.95
2017-06-30T00:58:33.949Z,935.93
2017-06-30T00:59:02.215Z,935.95
2017-06-30T00:59:30.443Z,935.92
2017-06-30T00:59:58.705Z,935.94
2017-06-30T01:00:26.843Z,935.96
2017-06-30T01:00:55.074Z,935.94
2017-06-30T01:01:23.270Z,935.95
2017-06-30T01:01:51.389Z,935.96
2017-06-30T01:02:19.607Z,935.94
2017-06-30T01:02:47.839Z,935.96
2017-06-30T01:03:16.070Z,936.01
2017-06-30T01:03:44.199Z,935.97
2017-06-30T01:04:12.379Z,935.98
2017-06-30T01:04:40.663Z,935.97
2017-06-30T01:05:08.812Z,935.99
2017-06-30T01:05:36.836Z,936.01
2017-06-30T01:06:05.089Z,935.97
2017-06-30T01:06:33.134Z,936.03
2017-06-30T01:07:01.207Z,936.01
2017-06-30T01:07:29.400Z,936.05
2017-06-30T01:07:57.642Z,936.03
2017-06-30T01:08:25.715Z,935.99
2017-06-30T01:08:53.850Z,935.99
2017-06-30T01:09:22.019Z,935.96
2017-06-30T01:09:50.213Z,936
2017-06-30T01:10:18.304Z,936.01
2017-06-30T01:10:46.538Z,936.01
2017-06-30T01:11:14.682Z,935.97
2017-06-30T01:11:42.643Z,936.01
2017-06-30T01:12:10.710Z,935.99
2017-06-30T01:12:38.722Z,935.98
2017-06-30T01:13:06.917Z,936.03
2017-06-30T01:13:34.904Z,935.98
2017-06-30T01:14:03.022Z,935.95
2017-06-30T01:14:31.064Z,935.98
2017-06-30T01:14:59.162Z,935.98
2017-06-30T01:15:27.191Z,935.96
2017-06-30T01:15:55.313Z,935.95
2017-06-30T01:16:23.450Z,935.94
2017-06-30T01:16:51.724Z,935.94
2017-06-30T01:17:19.876Z,935.96
2017-06-30T01:17:48.061Z,935.93
2017-06-30T01:18:16.264Z,935.96
2017-06-30T01:18:44.309Z,935.97
2017-06-30T01:19:12.514Z,936
2017-06-30T01:19:40.750Z,935.97
2017-06-30T01:20:08.885Z,936.01
2017-06-30T01:20:37.029Z,935.97
2017-06-30T01:21:05.088Z,935.97
2017-06-30T01:21:33.283Z,935.98
2017-06-30T01:22:01.448Z,936.02
2017-06-30T01:22:29.474Z,936.01
2017-06-30T01:22:57.585Z,936.01
2017-06-30T01:23:25.780Z,936.02
2017-06-30T01:23:53.793Z,936
2017-06-30T01:24:21.832Z,936.01
2017-06-30T01:24:50.231Z,935.99
2017-06-30T01:25:18.339Z,936.01
2017-06-30T01:25:46.558Z,935.98
2017-06-30T01:26:14.659Z,935.94
2017-06-30T01:26:42.629Z,935.96
2017-06-30T01:27:10.748Z,935.98
2017-06-30T01:27:38.949Z,935.93
2017-06-30T01:28:07.070Z,935.93
2017-06-30T01:28:35.259Z,935.96
2017-06-30T01:29:03.471Z,935.97
2017-06-30T01:29:31.629Z,935.96
2017-06-30T01:29:59.812Z,935.93
2017-06-30T01:30:28.089Z,935.88
2017-06-30T01:30:56.229Z,935.91
2017-06-30T01:31:24.337Z,935.92
2017-06-30T01:31:52.441Z,935.87
2017-06-30T01:32:20.463Z,935.91
2017-06-30T01:32:48.418Z,935.92
2017-06-30T01:33:16.672Z,935.91
2017-06-30T01:33:44.790Z,935.9
2017-06-30T01:34:13.015Z,935.91
2017-06-30T01:34:41.228Z,935.86
2017-06-30T01:35:09.463Z,935.87
2017-06-30T01:35:37.942Z,935.9
2017-06-30T01:36:06.153Z,935.88
2017-06-30T01:36:34.088Z,935.84
2017-06-30T01:37:02.303Z,935.87
2017-06-30T01:37:30.450Z,935.87
2017-06-30T01:37:58.540Z,935.83
2017-06-30T01:38:26.645Z,935.88
2017-06-30T01:38:54.874Z,935.85
2017-06-30T01:39:23.092Z,935.85
2017-06-30T01:39:51.204Z,935.83
2017-06-30T01:40:19.211Z,935.83
2017-06-30T01:40:47.320Z,935.84
2017-06-30T01:41:15.532Z,935.81
2017-06-30T01:41:43.684Z,935.81
2017-06-30T01:42:11.853Z,935.82
2017-06-30T01:42:40.029Z,935.82
2017-06-30T01:43:08.188Z,935.82
2017-06-30T01:43:36.400Z,935.78
2017-06-30T01:44:04.626Z,935.8
2017-06-30T01:44:32.758Z,935.8
2017-06-30T01:45:00.957Z,935.81
2017-06-30T01:45:29.162Z,935.8
2017-06-30T01:45:57.379Z,935.82
2017-06-30T01:46:25.509Z,935.82
2017-06-30T01:46:53.702Z,935.78
2017-06-30T01:47:21.842Z,935.83
2017-06-30T01:47:49.971Z,935.83
2017-06-30T01:48:18.198Z,935.84
2017-06-30T01:48:46.296Z,935.82
2017-06-30T01:49:14.466Z,935.83
2017-06-30T01:49:42.464Z,935.85
2017-06-30T01:50:10.784Z,935.85
2017-06-30T01:50:38.911Z,935.88
2017-06-30T01:51:07.103Z,935.88
2017-06-30T01:51:35.106Z,935.86
2017-06-30T01:52:03.238Z,935.86
2017-06-30T01:52:31.482Z,935.89
2017-06-30T01:52:59.689Z,935.85
2017-06-30T01:53:27.922Z,935.85
2017-06-30T01:53:56.136Z,935.84
2017-06-30T01:54:24.343Z,935.87
2017-06-30T01:54:52.365Z,935.84
2017-06-30T01:55:20.400Z,935.85
2017-06-30T01:55:48.646Z,935.88
2017-06-30T01:56:16.771Z,935.86
2017-06-30T01:56:44.870Z,935.87
2017-06-30T01:57:13.099Z,935.86
2017-06-30T01:57:41.299Z,935.87
2017-06-30T01:58:09.504Z,935.86
2017-06-30T01:58:37.573Z,935.91
2017-06-30T01:59:05.787Z,935.89
2017-06-30T01:59:33.984Z,935.88
2017-06-30T02:00:02.141Z,935.88
2017-06-30T02:00:30.269Z,935.89
2017-06-30T02:00:58.508Z,935.9
2017-06-30T02:01:26.726Z,935.93
2017-06-30T02:01:54.946Z,935.89
2017-06-30T02:02:23.191Z,935.9
2017-06-30T02:02:51.357Z,935.9
2017-06-30T02:03:19.429Z,935.88
2017-06-30T02:03:47.598Z,935.9
2017-06-30T02:04:15.798Z,935.88
2017-06-30T02:04:43.985Z,935.89
2017-06-30T02:05:12.276Z,935.9
2017-06-30T02:05:40.386Z,935.9
2017-06-30T02:06:08.502Z,935.88
2017-06-30T02:06:36.624Z,935.82
2017-06-30T02:07:04.740Z,935.82
2017-06-30T02:07:32.849Z,935.84
2017-06-30T02:08:01.052Z,935.83
2017-06-30T02:08:28.952Z,935.84
2017-06-30T02:08:57.048Z,935.8
2017-06-30T02:09:25.171Z,935.82
2017-06-30T02:09:53.295Z,935.82
2017-06-30T02:10:21.523Z,935.81
2017-06-30T02:10:49.656Z,935.78
2017-06-30T02:11:17.792Z,935.83
2017-06-30T02:11:45.931Z,935.83
2017-06-30T02:12:13.926Z,935.81
2017-06-30T02:12:42.096Z,935.78
2017-06-30T02:13:10.224Z,935.8
2017-06-30T02:13:38.266Z,935.84
2017-06-30T02:14:06.491Z,935.78
2017-06-30T02:14:34.517Z,935.78
2017-06-30T02:15:02.618Z,935.79
2017-06-30T02:15:31.001Z,935.78
2017-06-30T02:15:59.131Z,935.79
2017-06-30T02:16:27.118Z,935.76
2017-06-30T02:16:54.967Z,935.81
2017-06-30T02:17:23.078Z,935.78
2017-06-30T02:17:51.213Z,935.79
2017-06-30T02:18:19.335Z,935.77
2017-06-30T02:18:47.392Z,935.79
2017-06-30T02:19:15.563Z,935.78
2017-06-30T02:19:43.801Z,935.78
2017-06-30T02:20:11.959Z,935.76
2017-06-30T02:20:40.264Z,935.76
2017-06-30T02:21:08.446Z,935.77
2017-06-30T02:21:36.692Z,935.79
2017-06-30T02:22:04.812Z,935.82
2017-06-30T02:22:32.991Z,935.79
2017-06-30T02:23:01.142Z,935.79
2017-06-30T02:23:29.174Z,935.8
2017-06-30T02:23:57.289Z,935.78
2017-06-30T02:24:25.487Z,935.78
2017-06-30T02:24:53.517Z,935.78
2017-06-30T02:25:21.886Z,935.78
2017-06-30T02:25:50.034Z,935.79
2017-06-30T02:26:18.172Z,935.77
2017-06-30T02:26:46.389Z,935.77
2017-06-30T02:27:14.421Z,935.8
2017-06-30T02:27:42.495Z,935.77
2017-06-30T02:28:10.701Z,935.77
2017-06-30T02:28:38.932Z,935.75
2017-06-30T02:29:07.070Z,935.73
2017-06-30T02:29:35.175Z,935.76
2017-06-30T02:30:03.415Z,935.77
2017-06-30T02:30:31.525Z,935.73
2017-06-30T02:31:00.241Z,935.73
2017-06-30T02:31:28.230Z,935.76
2017-06-30T02:31:56.233Z,935.74
2017-06-30T02:32:24.769Z,935.77
2017-06-30T02:32:52.774Z,935.77
2017-06-30T02:33:20.891Z,935.76
2017-06-30T02:33:48.971Z,935.74
2017-06-30T02:34:17.127Z,935.78
2017-06-30T02:34:45.206Z,935.76
2017-06-30T02:35:13.219Z,935.75
2017-06-30T02:35:41.504Z,935.78
2017-06-30T02:36:09.634Z,935.79
2017-06-30T02:36:37.653Z,935.78
2017-06-30T02:37:05.692Z,935.77
2017-06-30T02:37:33.725Z,935.76
2017-06-30T02:38:01.741Z,935.79
2017-06-30T02:38:29.877Z,935.78
2017-06-30T02:38:57.906Z,935.74
2017-06-30T02:39:26.048Z,935.75
2017-06-30T02:39:54.075Z,935.76
2017-06-30T02:40:22.225Z,935.75
2017-06-30T02:40:50.452Z,935.71
2017-06-30T02:41:18.594Z,935.7
2017-06-30T02:41:46.811Z,935.69
2017-06-30T02:42:14.935Z,935.71
2017-06-30T02:42:43.083Z,935.69
2017-06-30T02:43:11.173Z,935.66
2017-06-30T02:43:39.251Z,935.72
2017-06-30T02:44:07.478Z,935.67
2017-06-30T02:44:35.593Z,935.68
2017-06-30T02:45:03.697Z,935.67
2017-06-30T02:45:31.909Z,935.7
2017-06-30T02:46:00.194Z,935.69
2017-06-30T02:46:28.409Z,935.66
2017-06-30T02:46:56.584Z,935.65
2017-06-30T02:47:24.527Z,935.66
2017-06-30T02:47:52.690Z,935.65
2017-06-30T02:48:20.898Z,935.64
2017-06-30T02:48:48.926Z,935.65
2017-06-30T02:49:17.038Z,935.67
2017-06-30T02:49:45.148Z,935.65
2017-06-30T02:50:13.152Z,935.63
2017-06-30T02:50:41.245Z,935.6
2017-06-30T02:51:09.282Z,935.62
2017-06-30T02:51:37.470Z,935.58
2017-06-30T02:52:05.654Z,935.61
2017-06-30T02:52:33.799Z,935.58
2017-06-30T02:53:02.082Z,935.59
2017-06-30T02:53:30.315Z,935.59
2017-06-30T02:53:58.417Z,935.58
2017-06-30T02:54:26.537Z,935.59
2017-06-30T02:54:54.770Z,935.58
2017-06-30T02:55:22.975Z,935.56
2017-06-30T02:55:51.279Z,935.54
2017-06-30T02:56:19.239Z,935.55
2017-06-30T02:56:47.248Z,935.54
2017-06-30T02:57:15.429Z,935.57
2017-06-30T02:57:43.650Z,935.57
2017-06-30T02:58:11.626Z,935.54
2017-06-30T02:58:39.853Z,935.53
2017-06-30T02:59:08.098Z,935.55
2017-06-30T02:59:36.262Z,935.6
2017-06-30T03:00:04.460Z,935.6
2017-06-30T03:00:32.656Z,935.6
2017-06-30T03:01:00.911Z,935.62
2017-06-30T03:01:29.057Z,935.63
2017-06-30T03:01:57.275Z,935.62
2017-06-30T03:02:25.527Z,935.66
2017-06-30T03:02:53.618Z,935.64
2017-06-30T03:03:21.763Z,935.64
2017-06-30T03:03:49.805Z,935.64
2017-06-30T03:04:17.584Z,935.65
2017-06-30T03:04:45.810Z,935.63
2017-06-30T03:05:14.043Z,935.67
2017-06-30T03:05:42.091Z,935.68
2017-06-30T03:06:10.150Z,935.72
2017-06-30T03:06:38.320Z,935.73
2017-06-30T03:07:06.446Z,935.7
2017-06-30T03:07:34.577Z,935.68
2017-06-30T03:08:02.586Z,935.71
2017-06-30T03:08:30.693Z,935.68
2017-06-30T03:08:58.861Z,935.71
2017-06-30T03:09:26.960Z,935.7
2017-06-30T03:09:55.194Z,935.66
2017-06-30T03:10:23.313Z,935.69
2017-06-30T03:10:51.399Z,935.71
2017-06-30T03:11:19.805Z,935.72
2017-06-30T03:11:47.922Z,935.7
2017-06-30T03:12:16.066Z,935.7
2017-06-30T03:12:44.276Z,935.66
2017-06-30T03:13:12.267Z,935.69
2017-06-30T03:13:40.463Z,935.7
2017-06-30T03:14:08.753Z,935.7
2017-06-30T03:14:36.961Z,935.65
2017-06-30T03:15:05.185Z,935.67
2017-06-30T03:15:33.221Z,935.67
2017-06-30T03:16:01.363Z,935.67
2017-06-30T03:16:29.435Z,935.68
2017-06-30T03:16:57.595Z,935.67
2017-06-30T03:17:25.709Z,935.68
2017-06-30T03:17:53.802Z,935.7
2017-06-30T03:18:21.932Z,935.67
2017-06-30T03:18:50.187Z,935.68
2017-06-30T03:19:18.428Z,935.66
2017-06-30T03:19:46.550Z,935.7
2017-06-30T03:20:14.664Z,935.7
2017-06-30T03:20:42.818Z,935.74
2017-06-30T03:21:11.035Z,935.72
2017-06-30T03:21:39.288Z,935.71
2017-06-30T03:22:07.429Z,935.7
2017-06-30T03:22:35.648Z,935.71
2017-06-30T03:23:03.871Z,935.72
2017-06-30T03:23:32.096Z,935.72
2017-06-30T03:24:00.129Z,935.69
2017-06-30T03:24:28.251Z,935.72
2017-06-30T03:24:56.257Z,935.7
2017-06-30T03:25:24.302Z,935.69
2017-06-30T03:25:52.441Z,935.72
2017-06-30T03:26:20.597Z,935.72
2017-06-30T03:26:48.690Z,935.7
2017-06-30T03:27:16.809Z,935.7
2017-06-30T03:27:44.929Z,935.69
2017-06-30T03:28:13.035Z,935.68
2017-06-30T03:29:35.388Z,935.69
2017-06-30T03:30:03.609Z,935.68
2017-06-30T03:30:32.016Z,935.67
2017-06-30T03:31:00.604Z,935.66
2017-06-30T03:31:28.804Z,935.67
2017-06-30T03:31:56.820Z,935.64
2017-06-30T03:32:25.032Z,935.64
2017-06-30T03:32:53.147Z,935.62
2017-06-30T03:33:21.359Z,935.62
2017-06-30T03:33:49.372Z,935.63
2017-06-30T03:34:17.618Z,935.63
2017-06-30T03:34:45.812Z,935.66
2017-06-30T03:35:14.035Z,935.62
2017-06-30T03:35:42.053Z,935.63
2017-06-30T03:36:10.128Z,935.61
2017-06-30T03:36:38.366Z,935.64
2017-06-30T03:37:06.505Z,935.64
2017-06-30T03:37:34.515Z,935.65
2017-06-30T03:38:02.637Z,935.6
2017-06-30T03:38:30.845Z,935.63
2017-06-30T03:38:58.743Z,935.61
2017-06-30T03:39:26.982Z,935.65
2017-06-30T03:39:55.203Z,935.6
2017-06-30T03:40:23.142Z,935.59
2017-06-30T03:40:51.258Z,935.6
2017-06-30T03:41:19.548Z,935.62
2017-06-30T03:41:47.713Z,935.62
2017-06-30T03:42:15.902Z,935.59
2017-06-30T03:42:43.925Z,935.6
2017-06-30T03:43:12.137Z,935.58
2017-06-30T03:43:40.333Z,935.62
2017-06-30T03:44:08.588Z,935.61
2017-06-30T03:44:36.679Z,935.59
2017-06-30T03:45:04.657Z,935.63
2017-06-30T03:45:32.784Z,935.57
2017-06-30T03:46:00.986Z,935.55
2017-06-30T03:46:29.311Z,935.58
2017-06-30T03:46:58.453Z,935.57
2017-06-30T03:47:26.736Z,935.55
2017-06-30T03:47:55.012Z,935.56
2017-06-30T03:48:23.146Z,935.55
2017-06-30T03:48:51.168Z,935.56
2017-06-30T03:49:19.431Z,935.55
2017-06-30T03:49:47.500Z,935.54
2017-06-30T03:50:15.656Z,935.57
2017-06-30T03:50:43.761Z,935.55
2017-06-30T03:51:11.990Z,935.6
2017-06-30T03:51:40.220Z,935.6
2017-06-30T03:52:08.379Z,935.57
2017-06-30T03:52:36.591Z,935.62
2017-06-30T03:53:04.796Z,935.62
2017-06-30T03:53:32.835Z,935.61
2017-06-30T03:54:00.856Z,935.58
2017-06-30T03:54:29.020Z,935.6
2017-06-30T03:54:57.164Z,935.57
2017-06-30T03:55:25.120Z,935.56
2017-06-30T03:55:53.244Z,935.58
2017-06-30T03:56:21.351Z,935.6
2017-06-30T03:56:49.568Z,935.56
2017-06-30T03:57:17.671Z,935.57
2017-06-30T03:57:45.946Z,935.57
2017-06-30T03:58:14.120Z,935.53
2017-06-30T03:58:42.065Z,935.54
2017-06-30T03:59:10.322Z,935.53
2017-06-30T03:59:38.460Z,935.55
2017-06-30T04:00:06.594Z,935.54
2017-06-30T04:00:34.707Z,935.53
2017-06-30T04:01:02.844Z,935.55
2017-06-30T04:01:30.872Z,935.57
2017-06-30T04:01:59.173Z,935.53
2017-06-30T04:02:27.427Z,935.57
2017-06-30T04:02:55.558Z,935.59
2017-06-30T04:03:24.329Z,935.6
2017-06-30T04:03:52.433Z,935.59
2017-06-30T04:04:20.593Z,935.62
2017-06-30T04:04:48.725Z,935.59
2017-06-30T04:05:16.918Z,935.61
2017-06-30T04:05:45.107Z,935.62
2017-06-30T04:06:13.221Z,935.64
2017-06-30T04:06:41.424Z,935.62
2017-06-30T04:07:09.665Z,935.6
2017-06-30T04:07:37.776Z,935.58
2017-06-30T04:08:05.851Z,935.62
2017-06-30T04:08:33.851Z,935.6
2017-06-30T04:09:01.945Z,935.56
2017-06-30T04:09:29.997Z,935.57
2017-06-30T04:09:58.228Z,935.57
2017-06-30T04:10:26.348Z,935.56
2017-06-30T04:10:54.405Z,935.54
2017-06-30T04:11:22.416Z,935.53
2017-06-30T04:11:50.756Z,935.51
2017-06-30T04:12:18.697Z,935.5
2017-06-30T04:12:46.921Z,935.53
2017-06-30T04:13:14.885Z,935.51
2017-06-30T04:13:43.079Z,935.51
2017-06-30T04:14:11.241Z,935.51
2017-06-30T04:14:39.365Z,935.47
2017-06-30T04:15:07.394Z,935.5
2017-06-30T04:15:35.617Z,935.5
2017-06-30T04:16:03.554Z,935.51
2017-06-30T04:16:31.800Z,935.49
2017-06-30T04:17:00.011Z,935.51
2017-06-30T04:17:28.024Z,935.5
2017-06-30T04:17:56.125Z,935.48
2017-06-30T04:18:24.212Z,935.45
2017-06-30T04:18:52.402Z,935.46
2017-06-30T04:19:20.411Z,935.45
2017-06-30T04:19:48.641Z,935.43
2017-06-30T04:20:16.753Z,935.45
2017-06-30T04:20:44.982Z,935.45
2017-06-30T04:21:13.104Z,935.42
2017-06-30T04:21:41.330Z,935.44
2017-06-30T04:22:09.585Z,935.42
2017-06-30T04:22:37.747Z,935.42
2017-06-30T04:23:05.945Z,935.42
2017-06-30T04:23:34.039Z,935.38
2017-06-30T04:24:02.229Z,935.39
2017-06-30T04:24:30.261Z,935.42
2017-06-30T04:24:58.382Z,935.41
2017-06-30T04:25:26.608Z,935.39
2017-06-30T04:25:54.783Z,935.39
2017-06-30T04:26:22.994Z,935.4
2017-06-30T04:26:51.177Z,935.41
2017-06-30T04:27:19.484Z,935.43
2017-06-30T04:27:47.615Z,935.41
2017-06-30T04:28:15.653Z,935.4
2017-06-30T04:28:43.859Z,935.43
2017-06-30T04:29:11.908Z,935.42
2017-06-30T04:29:39.999Z,935.44
2017-06-30T04:30:08.240Z,935.44
2017-06-30T04:30:36.344Z,935.46
2017-06-30T04:31:04.438Z,935.43
2017-06-30T04:31:32.541Z,935.47
2017-06-30T04:32:00.783Z,935.44
2017-06-30T04:32:28.987Z,935.45
2017-06-30T04:32:57.205Z,935.45
2017-06-30T04:33:25.206Z,935.41
2017-06-30T04:33:53.104Z,935.41
2017-06-30T04:34:21.035Z,935.43
2017-06-30T04:34:49.103Z,935.42
2017-06-30T04:35:17.341Z,935.42
2017-06-30T04:35:45.352Z,935.4
2017-06-30T04:36:13.389Z,935.44
2017-06-30T04:36:41.606Z,935.39
2017-06-30T04:37:09.796Z,935.41
2017-06-30T04:37:37.901Z,935.41
2017-06-30T04:38:06.040Z,935.39
2017-06-30T04:38:34.028Z,935.37
2017-06-30T04:39:02.000Z,935.37
2017-06-30T04:39:30.135Z,935.38
2017-06-30T04:39:58.390Z,935.37
2017-06-30T04:40:26.661Z,935.34
2017-06-30T04:40:54.796Z,935.37
2017-06-30T04:41:22.907Z,935.37
2017-06-30T04:41:51.058Z,935.34
2017-06-30T04:42:19.317Z,935.36
2017-06-30T04:42:47.522Z,935.35
2017-06-30T04:43:15.693Z,935.35
2017-06-30T04:43:43.897Z,935.37
2017-06-30T04:44:11.934Z,935.36
2017-06-30T04:44:40.084Z,935.36
2017-06-30T04:45:08.150Z,935.39
2017-06-30T04:45:36.208Z,935.39
2017-06-30T04:46:04.400Z,935.38
2017-06-30T04:46:32.607Z,935.33
2017-06-30T04:47:00.799Z,935.36
2017-06-30T04:47:29.064Z,935.39
2017-06-30T04:47:57.181Z,935.39
2017-06-30T04:48:25.329Z,935.39
2017-06-30T04:48:53.413Z,935.37
2017-06-30T04:49:21.628Z,935.35
2017-06-30T04:49:49.768Z,935.35
2017-06-30T04:50:17.832Z,935.35
2017-06-30T04:50:45.986Z,935.32
2017-06-30T04:51:14.063Z,935.33
2017-06-30T04:51:42.213Z,935.34
2017-06-30T04:52:10.271Z,935.32
2017-06-30T04:52:38.340Z,935.31
2017-06-30T04:53:06.359Z,935.34
2017-06-30T04:53:34.411Z,935.33
2017-06-30T04:54:02.620Z,935.29
2017-06-30T04:54:30.633Z,935.3
2017-06-30T04:54:58.684Z,935.28
2017-06-30T04:55:26.925Z,935.27
2017-06-30T04:55:54.907Z,935.27
2017-06-30T04:56:23.136Z,935.27
2017-06-30T04:56:51.191Z,935.27
2017-06-30T04:57:19.264Z,935.27
2017-06-30T04:57:47.312Z,935.26
2017-06-30T04:58:15.491Z,935.27
2017-06-30T04:58:43.643Z,935.26
2017-06-30T04:59:11.753Z,935.29
2017-06-30T04:59:39.873Z,935.25
2017-06-30T05:00:07.827Z,935.28
2017-06-30T05:00:36.113Z,935.29
2017-06-30T05:01:04.242Z,935.26
2017-06-30T05:01:32.442Z,935.29
2017-06-30T05:02:00.459Z,935.24
2017-06-30T05:02:28.726Z,935.26
2017-06-30T05:02:56.775Z,935.26
2017-06-30T05:03:24.964Z,935.24
2017-06-30T05:03:53.005Z,935.25
2017-06-30T05:04:21.180Z,935.21
2017-06-30T05:04:49.368Z,935.23
2017-06-30T05:05:17.551Z,935.27
2017-06-30T05:05:45.750Z,935.23
2017-06-30T05:06:13.978Z,935.26
2017-06-30T05:06:41.991Z,935.23
2017-06-30T05:07:10.113Z,935.23
2017-06-30T05:07:38.380Z,935.25
2017-06-30T05:08:06.601Z,935.24
2017-06-30T05:08:34.795Z,935.24
2017-06-30T05:09:02.856Z,935.2
2017-06-30T05:09:30.872Z,935.21
2017-06-30T05:09:58.971Z,935.2
2017-06-30T05:10:27.121Z,935.2
2017-06-30T05:10:55.181Z,935.19
2017-06-30T05:11:23.224Z,935.23
2017-06-30T05:11:51.409Z,935.2
2017-06-30T05:12:19.597Z,935.21
2017-06-30T05:12:47.938Z,935.22
2017-06-30T05:13:16.138Z,935.19
2017-06-30T05:13:44.339Z,935.19
2017-06-30T05:14:12.305Z,935.16
2017-06-30T05:14:40.494Z,935.14
2017-06-30T05:15:08.515Z,935.17
2017-06-30T05:15:36.678Z,935.16
2017-06-30T05:16:04.891Z,935.14
2017-06-30T05:16:33.023Z,935.15
2017-06-30T05:17:01.081Z,935.14
2017-06-30T05:17:29.104Z,935.16
2017-06-30T05:17:57.343Z,935.15
2017-06-30T05:18:25.422Z,935.14
2017-06-30T05:18:53.674Z,935.14
2017-06-30T05:19:21.860Z,935.15
2017-06-30T05:19:49.992Z,935.17
2017-06-30T05:20:18.189Z,935.17
2017-06-30T05:20:46.395Z,935.18
2017-06-30T05:21:14.621Z,935.18
2017-06-30T05:21:42.788Z,935.16
2017-06-30T05:22:10.991Z,935.2
2017-06-30T05:22:39.296Z,935.16
2017-06-30T05:23:07.498Z,935.17
2017-06-30T05:23:35.522Z,935.17
2017-06-30T05:24:03.722Z,935.18
2017-06-30T05:24:31.906Z,935.18
2017-06-30T05:25:00.148Z,935.16
2017-06-30T05:25:28.281Z,935.15
2017-06-30T05:25:56.265Z,935.15
2017-06-30T05:26:24.481Z,935.17
2017-06-30T05:26:52.514Z,935.13
2017-06-30T05:27:20.658Z,935.17
2017-06-30T05:27:48.857Z,935.13
2017-06-30T05:28:17.128Z,935.15
2017-06-30T05:28:45.282Z,935.13
2017-06-30T05:29:13.407Z,935.15
2017-06-30T05:29:41.638Z,935.16
2017-06-30T05:30:09.742Z,935.15
2017-06-30T05:30:37.680Z,935.18
2017-06-30T05:31:05.801Z,935.14
2017-06-30T05:31:33.914Z,935.13
2017-06-30T05:32:01.984Z,935.14
2017-06-30T05:32:30.092Z,935.14
2017-06-30T05:32:58.334Z,935.14
2017-06-30T05:33:26.319Z,935.13
2017-06-30T05:33:54.467Z,935.15
2017-06-30T05:34:22.598Z,935.18
2017-06-30T05:34:50.708Z,935.15
2017-06-30T05:35:18.925Z,935.14
2017-06-30T05:35:47.073Z,935.13
2017-06-30T05:36:15.208Z,935.13
2017-06-30T05:36:43.249Z,935.13
2017-06-30T05:37:11.364Z,935.15
2017-06-30T05:37:39.500Z,935.1
2017-06-30T05:38:07.946Z,935.14
2017-06-30T05:38:36.036Z,935.1
2017-06-30T05:39:04.118Z,935.11
2017-06-30T05:39:32.197Z,935.08
2017-06-30T05:40:00.335Z,935.1
2017-06-30T05:40:28.531Z,935.1
2017-06-30T05:40:56.607Z,935.1
2017-06-30T05:41:24.831Z,935.07
2017-06-30T05:41:52.821Z,935.04
2017-06-30T05:42:21.054Z,935.03
2017-06-30T05:42:49.219Z,935.04
2017-06-30T05:43:17.344Z,935.04
2017-06-30T05:43:45.594Z,935
2017-06-30T05:44:13.735Z,934.99
2017-06-30T05:44:41.873Z,934.98
2017-06-30T05:45:10.063Z,934.97
2017-06-30T05:45:38.074Z,934.96
2017-06-30T05:46:06.310Z,934.95
2017-06-30T05:46:34.329Z,934.93
2017-06-30T05:47:02.572Z,934.92
2017-06-30T05:47:30.759Z,934.93
2017-06-30T05:47:58.967Z,934.89
2017-06-30T05:48:27.178Z,934.9
2017-06-30T05:48:55.380Z,934.88
2017-06-30T05:49:23.412Z,934.87
2017-06-30T05:49:51.318Z,934.85
2017-06-30T05:50:19.442Z,934.88
2017-06-30T05:50:47.486Z,934.85
2017-06-30T05:51:15.689Z,934.84
2017-06-30T05:51:43.883Z,934.83
2017-06-30T05:52:11.980Z,934.82
2017-06-30T05:52:40.237Z,934.79
2017-06-30T05:53:08.673Z,934.8
2017-06-30T05:53:36.869Z,934.77